Time;durP1;ratioP1;P1;durP2;ratioP2;P2;SDS_P1;SDS_P2;PMS_P1;PMS_P2;Temp;Humidity;BMP_temperature;BMP_pressure;BME280_temperature;BME280_humidity;BME280_pressure;Samples;Min_cycle;Max_cycle;Signal;HPM_P1;HPM_P2
2021/01/24 00:01:18;;;;;;;8.50;5.30;;;1.40;74.70;;;;;;6039918;23;20198;-70
2021/01/24 00:03:45;;;;;;;8.77;5.65;;;1.50;74.80;;;;;;6039518;23;20170;-68
2021/01/24 00:06:12;;;;;;;10.70;5.10;;;1.50;74.90;;;;;;6039487;23;20246;-69
2021/01/24 00:08:39;;;;;;;9.07;5.20;;;1.50;75.00;;;;;;6039470;23;20178;-68
2021/01/24 00:11:05;;;;;;;11.40;6.78;;;1.60;75.20;;;;;;6039704;23;20166;-69
2021/01/24 00:13:32;;;;;;;12.32;8.00;;;1.60;74.90;;;;;;6040190;23;20171;-68
2021/01/24 00:16:00;;;;;;;10.52;6.00;;;1.60;74.10;;;;;;6039390;23;20193;-70
2021/01/24 00:18:27;;;;;;;8.82;4.57;;;1.60;73.70;;;;;;6035774;23;20175;-68
2021/01/24 00:20:53;;;;;;;8.13;4.85;;;1.50;74.20;;;;;;6039419;23;20174;-68
2021/01/24 00:23:20;;;;;;;6.93;4.65;;;1.60;74.90;;;;;;6039026;23;20626;-68
2021/01/24 00:25:48;;;;;;;6.43;3.17;;;1.70;74.70;;;;;;6038768;23;20174;-68
2021/01/24 00:28:20;;;;;;;5.28;3.88;;;1.60;74.00;;;;;;6039838;23;20503;-68
2021/01/24 00:30:47;;;;;;;5.55;4.00;;;1.50;74.10;;;;;;6039276;23;20246;-68
2021/01/24 00:33:15;;;;;;;5.00;3.38;;;1.40;74.90;;;;;;6040037;23;20173;-67
2021/01/24 00:35:42;;;;;;;5.70;3.67;;;1.50;74.20;;;;;;6038588;23;20167;-68
2021/01/24 00:38:09;;;;;;;6.40;3.78;;;1.50;74.40;;;;;;6039357;23;20171;-68
2021/01/24 00:40:35;;;;;;;4.82;3.35;;;1.40;74.10;;;;;;6039389;23;20226;-68
2021/01/24 00:43:04;;;;;;;4.68;3.08;;;1.30;75.10;;;;;;6038741;23;20167;-69
2021/01/24 00:45:30;;;;;;;8.27;3.00;;;1.20;75.80;;;;;;6038666;23;20171;-68
2021/01/24 00:47:57;;;;;;;6.63;3.00;;;1.30;76.20;;;;;;6039091;23;20206;-69
2021/01/24 00:50:24;;;;;;;5.72;3.05;;;1.40;75.90;;;;;;6040075;23;20166;-68
2021/01/24 00:52:53;;;;;;;5.20;2.80;;;1.50;75.70;;;;;;6039451;23;20205;-67
2021/01/24 00:55:19;;;;;;;7.22;2.85;;;1.60;75.10;;;;;;6038985;23;20473;-68
2021/01/24 00:57:46;;;;;;;9.38;3.08;;;1.70;74.30;;;;;;6039462;23;20253;-68
2021/01/24 01:00:13;;;;;;;5.32;3.53;;;1.70;73.70;;;;;;6039435;23;20171;-68
2021/01/24 01:02:39;;;;;;;5.22;3.60;;;1.80;72.90;;;;;;6039246;23;20202;-68
2021/01/24 01:05:07;;;;;;;5.35;3.28;;;1.80;72.50;;;;;;6039944;23;20170;-68
2021/01/24 01:07:35;;;;;;;4.88;2.83;;;1.70;72.20;;;;;;6040176;23;20233;-68
2021/01/24 01:10:02;;;;;;;3.95;2.03;;;1.70;72.10;;;;;;6039536;23;20179;-68
2021/01/24 01:12:28;;;;;;;3.00;2.05;;;1.70;71.70;;;;;;6039790;23;20170;-68
2021/01/24 01:14:54;;;;;;;2.80;2.15;;;1.60;70.90;;;;;;6039579;23;20523;-68
2021/01/24 01:17:21;;;;;;;2.92;1.60;;;1.40;71.40;;;;;;6039730;23;20170;-69
2021/01/24 01:19:47;;;;;;;4.97;1.90;;;1.40;71.40;;;;;;6040094;23;20178;-68
2021/01/24 01:22:14;;;;;;;3.20;2.03;;;1.30;71.40;;;;;;6039266;23;20225;-68
2021/01/24 01:24:41;;;;;;;3.00;1.92;;;1.30;71.80;;;;;;6039565;23;20171;-68
2021/01/24 01:27:08;;;;;;;4.18;2.45;;;1.30;72.10;;;;;;6039620;23;20229;-69
2021/01/24 01:29:34;;;;;;;3.88;1.80;;;1.40;73.20;;;;;;6039549;23;20178;-67
2021/01/24 01:32:01;;;;;;;7.05;2.60;;;1.50;73.90;;;;;;6039060;23;20171;-68
2021/01/24 01:34:27;;;;;;;3.33;1.95;;;1.50;73.20;;;;;;6039969;23;20198;-68
2021/01/24 01:36:54;;;;;;;4.85;2.15;;;1.60;72.70;;;;;;6040033;23;20272;-69
2021/01/24 01:39:20;;;;;;;3.78;2.22;;;1.60;73.00;;;;;;6039935;23;20166;-68
2021/01/24 01:41:47;;;;;;;3.63;1.70;;;1.60;73.00;;;;;;6039675;23;20490;-68
2021/01/24 01:44:14;;;;;;;4.32;1.90;;;1.70;72.90;;;;;;6039569;23;20178;-69
2021/01/24 01:46:41;;;;;;;4.40;1.65;;;1.70;72.90;;;;;;6039427;23;20225;-68
2021/01/24 01:49:08;;;;;;;2.55;1.50;;;1.80;72.80;;;;;;6039722;23;20178;-68
2021/01/24 01:51:34;;;;;;;3.20;1.77;;;1.80;72.30;;;;;;6039358;23;20171;-69
2021/01/24 01:54:01;;;;;;;4.18;1.40;;;1.80;73.30;;;;;;6040052;23;20173;-68
2021/01/24 01:56:27;;;;;;;2.67;1.10;;;1.70;75.20;;;;;;6039870;23;20171;-69
2021/01/24 01:58:55;;;;;;;2.35;0.80;;;1.80;76.30;;;;;;6039985;23;20218;-68
2021/01/24 02:01:33;;;;;;;1.50;0.70;;;1.80;77.10;;;;;;6038793;23;20194;-67
2021/01/24 02:04:08;;;;;;;1.83;1.05;;;1.90;77.60;;;;;;6039850;23;20184;-68
2021/01/24 02:06:41;;;;;;;2.10;0.93;;;2.00;78.50;;;;;;6039189;23;20240;-68
2021/01/24 02:09:18;;;;;;;2.20;1.25;;;2.00;79.20;;;;;;6039508;23;20162;-68
2021/01/24 02:11:52;;;;;;;1.80;1.08;;;2.10;79.10;;;;;;6039396;23;20159;-68
2021/01/24 02:14:24;;;;;;;2.00;1.20;;;2.10;79.10;;;;;;6040125;23;20193;-68
2021/01/24 02:16:54;;;;;;;2.15;0.90;;;2.00;80.00;;;;;;6039756;23;20474;-67
2021/01/24 02:19:26;;;;;;;1.80;0.93;;;2.00;80.30;;;;;;6039981;23;20171;-68
2021/01/24 02:21:55;;;;;;;1.60;0.80;;;2.00;79.90;;;;;;6039344;23;20479;-67
2021/01/24 02:24:23;;;;;;;1.60;1.02;;;2.10;80.50;;;;;;6039760;23;20174;-68
2021/01/24 02:27:01;;;;;;;1.20;0.50;;;2.10;81.10;;;;;;6039128;23;20194;-68
2021/01/24 02:29:51;;;;;;;1.20;0.50;;;2.10;82.10;;;;;;6040015;23;20159;-68
2021/01/24 02:32:22;;;;;;;1.55;0.60;;;2.20;82.40;;;;;;6039570;23;20662;-68
2021/01/24 02:34:50;;;;;;;1.20;0.50;;;2.20;82.70;;;;;;6042712;23;20181;-68
2021/01/24 02:37:19;;;;;;;1.30;0.60;;;2.30;82.40;;;;;;6042189;23;20170;-68
2021/01/24 02:39:46;;;;;;;1.60;0.60;;;2.30;82.20;;;;;;6042439;23;20166;-68
2021/01/24 02:42:14;;;;;;;1.30;0.50;;;2.40;81.80;;;;;;6042944;23;20193;-68
2021/01/24 02:44:42;;;;;;;1.13;0.40;;;2.50;81.80;;;;;;6042655;23;20170;-68
2021/01/24 02:47:08;;;;;;;1.20;0.50;;;2.50;81.60;;;;;;6042626;23;20198;-68
2021/01/24 02:49:37;;;;;;;1.50;0.77;;;2.60;81.70;;;;;;6042195;23;20170;-68
2021/01/24 02:52:04;;;;;;;1.40;0.55;;;2.60;81.80;;;;;;6042625;23;20173;-68
2021/01/24 02:54:33;;;;;;;1.30;0.63;;;2.70;81.50;;;;;;6042392;23;20158;-68
2021/01/24 02:56:59;;;;;;;1.60;0.60;;;2.80;81.30;;;;;;6042781;23;20174;-68
2021/01/24 02:59:26;;;;;;;1.33;0.60;;;2.80;81.10;;;;;;6042391;23;20181;-68
2021/01/24 03:01:52;;;;;;;1.10;0.40;;;2.90;81.20;;;;;;6042680;23;20209;-68
2021/01/24 03:04:19;;;;;;;1.50;0.57;;;2.90;80.80;;;;;;6042503;23;20193;-68
2021/01/24 03:06:46;;;;;;;1.30;0.50;;;3.00;80.80;;;;;;6042462;23;20190;-68
2021/01/24 03:09:13;;;;;;;1.20;0.50;;;3.00;80.20;;;;;;6042081;23;20170;-67
2021/01/24 03:11:43;;;;;;;1.20;0.50;;;3.20;79.70;;;;;;6042273;23;20637;-68
2021/01/24 03:14:14;;;;;;;1.40;0.60;;;3.20;79.30;;;;;;6042028;23;20159;-68
2021/01/24 03:16:42;;;;;;;1.50;0.80;;;3.30;79.40;;;;;;6042183;23;20189;-68
2021/01/24 03:19:13;;;;;;;1.50;0.60;;;3.30;79.80;;;;;;6042137;23;20245;-68
2021/01/24 03:21:41;;;;;;;1.30;0.60;;;3.30;80.60;;;;;;6042348;23;20165;-68
2021/01/24 03:24:09;;;;;;;2.95;0.80;;;3.30;81.50;;;;;;6042278;23;20517;-68
2021/01/24 03:26:37;;;;;;;1.30;0.60;;;3.30;81.50;;;;;;6042308;23;20538;-68
2021/01/24 03:29:03;;;;;;;1.20;0.60;;;3.30;82.00;;;;;;6042347;23;20178;-68
2021/01/24 03:31:31;;;;;;;1.70;0.98;;;3.30;82.80;;;;;;6042220;23;20194;-68
2021/01/24 03:33:58;;;;;;;1.30;0.60;;;3.40;83.00;;;;;;6042287;23;20222;-68
2021/01/24 03:36:25;;;;;;;1.20;0.60;;;3.40;83.10;;;;;;6042546;23;20178;-68
2021/01/24 03:38:51;;;;;;;1.70;0.68;;;3.40;83.10;;;;;;6042256;23;20170;-67
2021/01/24 03:41:19;;;;;;;1.40;0.68;;;3.30;83.70;;;;;;6042512;23;20531;-68
2021/01/24 03:43:45;;;;;;;1.50;0.50;;;3.20;84.00;;;;;;6041674;23;20206;-68
2021/01/24 03:46:12;;;;;;;1.40;0.70;;;3.20;84.30;;;;;;6040383;23;20171;-68
2021/01/24 03:48:38;;;;;;;1.30;0.60;;;3.20;84.50;;;;;;6040327;23;20201;-68
2021/01/24 03:51:05;;;;;;;1.85;0.88;;;3.20;85.00;;;;;;6041110;23;20171;-68
2021/01/24 03:53:31;;;;;;;1.40;0.80;;;3.20;85.80;;;;;;6040311;23;20179;-68
2021/01/24 03:55:58;;;;;;;1.70;0.80;;;3.30;85.70;;;;;;6041380;23;20190;-68
2021/01/24 03:58:25;;;;;;;1.30;0.60;;;3.30;85.20;;;;;;6040859;23;20171;-68
2021/01/24 04:00:51;;;;;;;1.27;0.57;;;3.30;84.50;;;;;;6040752;23;20202;-68
2021/01/24 04:03:18;;;;;;;1.73;0.60;;;3.20;83.90;;;;;;6040412;23;20233;-67
2021/01/24 04:05:44;;;;;;;1.20;0.50;;;3.10;83.60;;;;;;6040545;23;20170;-67
2021/01/24 04:08:13;;;;;;;1.50;0.70;;;3.10;83.00;;;;;;6040340;23;20221;-68
2021/01/24 04:10:40;;;;;;;1.83;0.70;;;3.10;82.30;;;;;;6040320;23;20171;-68
2021/01/24 04:13:06;;;;;;;1.30;0.50;;;3.00;81.70;;;;;;6040915;23;20181;-68
2021/01/24 04:15:33;;;;;;;1.25;0.60;;;3.00;80.90;;;;;;6040561;23;20170;-68
2021/01/24 04:18:00;;;;;;;1.40;0.60;;;3.00;80.30;;;;;;6040893;23;20170;-68
2021/01/24 04:20:26;;;;;;;1.20;0.50;;;3.00;79.70;;;;;;6040355;23;20174;-68
2021/01/24 04:22:52;;;;;;;1.67;0.68;;;3.00;79.80;;;;;;6040912;23;20249;-68
2021/01/24 04:25:19;;;;;;;1.40;0.60;;;3.10;81.40;;;;;;6040426;23;20216;-67
2021/01/24 04:27:45;;;;;;;1.23;0.60;;;3.10;82.40;;;;;;6040713;23;20194;-68
2021/01/24 04:30:13;;;;;;;1.35;0.60;;;3.20;82.20;;;;;;6040132;23;20177;-68
2021/01/24 04:32:40;;;;;;;1.40;0.60;;;3.20;80.50;;;;;;6040217;23;20170;-68
2021/01/24 04:35:08;;;;;;;1.40;0.65;;;3.20;78.60;;;;;;6040670;23;20497;-68
2021/01/24 04:37:34;;;;;;;1.55;0.70;;;3.20;77.70;;;;;;6039867;23;20170;-68
2021/01/24 04:40:01;;;;;;;1.30;0.55;;;3.10;76.60;;;;;;6039974;23;20170;-68
2021/01/24 04:42:29;;;;;;;1.45;0.50;;;3.10;75.30;;;;;;6040762;23;20166;-68
2021/01/24 04:44:55;;;;;;;1.30;0.50;;;3.10;75.00;;;;;;6039809;23;20177;-68
2021/01/24 04:47:24;;;;;;;1.20;0.50;;;3.10;73.90;;;;;;6040129;23;20708;-67
2021/01/24 04:49:51;;;;;;;1.30;0.60;;;3.10;73.50;;;;;;6039032;23;20171;-68
2021/01/24 04:52:18;;;;;;;1.40;0.60;;;3.00;72.90;;;;;;6040549;23;20170;-68
2021/01/24 04:54:45;;;;;;;1.30;0.60;;;3.00;72.40;;;;;;6039427;23;20173;-68
2021/01/24 04:57:12;;;;;;;1.20;0.50;;;2.90;70.70;;;;;;6040378;23;20207;-68
2021/01/24 04:59:39;;;;;;;1.27;0.60;;;2.90;70.00;;;;;;6040195;23;20167;-68
2021/01/24 05:02:09;;;;;;;1.20;0.50;;;2.90;70.00;;;;;;6040424;23;20191;-67
2021/01/24 05:04:36;;;;;;;1.40;0.60;;;2.90;69.70;;;;;;6040354;23;20480;-69
2021/01/24 05:07:03;;;;;;;1.20;0.50;;;2.90;68.90;;;;;;6040003;23;20201;-68
2021/01/24 05:09:29;;;;;;;1.20;0.50;;;2.80;67.60;;;;;;6039726;23;20171;-68
2021/01/24 05:11:56;;;;;;;1.33;0.50;;;2.80;66.90;;;;;;6040478;23;20194;-68
2021/01/24 05:14:24;;;;;;;1.40;0.60;;;2.70;66.40;;;;;;6039948;23;20262;-68
2021/01/24 05:16:52;;;;;;;1.40;0.60;;;2.70;65.90;;;;;;6040411;23;20638;-68
2021/01/24 05:19:21;;;;;;;1.48;0.70;;;2.70;65.60;;;;;;6040182;23;20167;-67
2021/01/24 05:21:47;;;;;;;1.30;0.60;;;2.70;64.80;;;;;;6039901;23;20166;-68
2021/01/24 05:24:18;;;;;;;1.30;0.60;;;2.70;65.10;;;;;;6039922;23;20483;-68
2021/01/24 05:26:45;;;;;;;1.30;0.50;;;2.60;65.30;;;;;;6039944;23;20273;-69
2021/01/24 05:29:22;;;;;;;1.40;0.60;;;2.60;65.30;;;;;;6040248;23;20171;-68
2021/01/24 05:31:51;;;;;;;1.50;0.60;;;2.50;65.10;;;;;;6039984;23;20502;-68
2021/01/24 05:34:17;;;;;;;1.60;0.80;;;2.50;65.00;;;;;;6039663;23;20171;-68
2021/01/24 05:36:45;;;;;;;1.30;0.60;;;2.50;64.80;;;;;;6039710;23;20212;-68
2021/01/24 05:39:12;;;;;;;1.70;0.77;;;2.50;64.60;;;;;;6040036;23;20463;-68
2021/01/24 05:41:39;;;;;;;1.50;0.80;;;2.50;64.50;;;;;;6039671;23;20171;-67
2021/01/24 05:44:12;;;;;;;1.73;0.68;;;2.50;64.80;;;;;;6039145;23;20170;-68
2021/01/24 05:46:39;;;;;;;1.52;0.70;;;2.50;64.80;;;;;;6039927;23;20242;-68
2021/01/24 05:49:07;;;;;;;1.65;0.70;;;2.50;64.40;;;;;;6039524;23;20226;-68
2021/01/24 05:51:34;;;;;;;1.77;0.60;;;2.40;63.70;;;;;;6039715;23;20494;-68
2021/01/24 05:54:00;;;;;;;1.55;0.70;;;2.40;63.70;;;;;;6039455;23;20170;-68
2021/01/24 05:56:28;;;;;;;1.52;0.80;;;2.40;63.50;;;;;;6040071;23;20300;-68
2021/01/24 05:58:56;;;;;;;1.30;0.60;;;2.40;63.40;;;;;;6039751;23;20171;-68
2021/01/24 06:01:23;;;;;;;1.58;0.70;;;2.40;63.60;;;;;;6039655;23;20245;-68
2021/01/24 06:03:50;;;;;;;1.90;0.80;;;2.40;63.70;;;;;;6039538;23;20193;-67
2021/01/24 06:06:16;;;;;;;1.73;0.85;;;2.30;64.10;;;;;;6039397;23;20174;-68
2021/01/24 06:08:43;;;;;;;1.60;0.70;;;2.30;64.10;;;;;;6039384;23;20478;-67
2021/01/24 06:11:10;;;;;;;1.30;0.60;;;2.20;63.80;;;;;;6039529;23;20199;-67
2021/01/24 06:13:38;;;;;;;1.50;0.70;;;2.20;63.90;;;;;;6039457;23;20532;-68
2021/01/24 06:16:08;;;;;;;1.40;0.60;;;2.20;63.90;;;;;;6039815;23;20230;-68
2021/01/24 06:18:41;;;;;;;2.03;0.70;;;2.20;64.30;;;;;;6039731;23;20159;-68
2021/01/24 06:21:12;;;;;;;1.50;0.80;;;2.10;64.20;;;;;;6039666;23;20159;-68
2021/01/24 06:23:44;;;;;;;1.50;0.60;;;2.10;64.40;;;;;;6039386;23;20159;-69
2021/01/24 06:26:16;;;;;;;1.40;0.60;;;2.00;64.20;;;;;;6039759;23;20158;-68
2021/01/24 06:28:44;;;;;;;2.00;0.70;;;2.00;64.10;;;;;;6039339;23;20222;-68
2021/01/24 06:31:15;;;;;;;2.22;0.90;;;2.00;64.30;;;;;;6039877;23;20171;-68
2021/01/24 06:33:44;;;;;;;1.70;0.70;;;2.00;63.90;;;;;;6039550;23;20181;-68
2021/01/24 06:36:11;;;;;;;1.70;0.70;;;2.00;63.90;;;;;;6039770;23;20177;-67
2021/01/24 06:38:39;;;;;;;1.40;0.60;;;2.00;63.60;;;;;;6039731;23;20170;-68
2021/01/24 06:41:08;;;;;;;1.65;0.80;;;2.00;63.70;;;;;;6039888;23;20177;-68
2021/01/24 06:43:37;;;;;;;1.70;0.80;;;2.00;63.20;;;;;;6039353;23;20170;-67
2021/01/24 06:46:05;;;;;;;1.50;0.70;;;2.00;62.60;;;;;;6039740;23;20173;-68
2021/01/24 06:48:44;;;;;;;1.70;0.90;;;2.00;63.10;;;;;;6038685;23;20194;-69
2021/01/24 06:51:33;;;;;;;1.90;0.90;;;2.00;62.90;;;;;;6039540;23;20257;-68
2021/01/24 06:54:01;;;;;;;1.60;0.88;;;1.90;61.00;;;;;;6038988;23;20178;-68
2021/01/24 06:56:41;;;;;;;1.40;0.70;;;1.90;60.70;;;;;;6039763;23;20167;-68
2021/01/24 06:59:08;;;;;;;2.05;0.63;;;1.90;60.50;;;;;;6039083;23;20177;-68
2021/01/24 07:01:36;;;;;;;1.65;0.80;;;1.90;60.70;;;;;;6039706;23;20222;-71
2021/01/24 07:04:37;;;;;;;1.90;0.80;;;1.90;60.40;;;;;;6038628;23;20249;-67
2021/01/24 07:07:31;;;;;;;1.75;0.68;;;1.90;59.80;;;;;;5980375;24;20194;-68
2021/01/24 07:09:58;;;;;;;1.63;0.73;;;1.90;60.00;;;;;;5980314;24;20172;-67
2021/01/24 07:12:38;;;;;;;1.77;0.70;;;1.80;60.00;;;;;;6018148;23;20170;-67
2021/01/24 07:15:07;;;;;;;1.95;0.80;;;1.90;60.10;;;;;;6039517;23;20217;-68
2021/01/24 07:17:33;;;;;;;1.52;0.70;;;1.80;60.00;;;;;;6038839;23;20206;-68
2021/01/24 07:20:01;;;;;;;1.52;0.75;;;1.90;60.20;;;;;;6039710;23;20170;-68
2021/01/24 07:22:29;;;;;;;1.50;0.60;;;1.90;60.00;;;;;;6040961;23;20206;-68
2021/01/24 07:24:56;;;;;;;1.55;0.60;;;1.90;59.90;;;;;;6041154;23;20170;-68
2021/01/24 07:27:24;;;;;;;1.45;0.75;;;1.90;59.70;;;;;;6041142;23;20194;-68
2021/01/24 07:29:50;;;;;;;1.92;0.70;;;1.90;59.80;;;;;;6041355;23;20171;-68
2021/01/24 07:32:19;;;;;;;2.95;0.90;;;1.90;60.00;;;;;;6039983;23;20178;-69
2021/01/24 07:34:47;;;;;;;1.52;0.77;;;1.90;60.10;;;;;;6041173;23;20174;-68
2021/01/24 07:37:14;;;;;;;2.42;0.90;;;1.90;60.10;;;;;;6041039;23;20166;-68
2021/01/24 07:39:41;;;;;;;2.22;1.15;;;2.00;60.20;;;;;;6041015;23;20177;-68
2021/01/24 07:42:08;;;;;;;1.50;0.70;;;2.10;59.80;;;;;;6040524;23;20170;-67
2021/01/24 07:44:35;;;;;;;1.85;0.60;;;2.10;59.50;;;;;;6033319;23;20175;-70
2021/01/24 07:47:02;;;;;;;2.47;0.70;;;2.30;60.40;;;;;;6037221;23;20518;-70
2021/01/24 07:49:29;;;;;;;4.82;0.90;;;2.60;61.20;;;;;;6039018;23;20174;-69
2021/01/24 07:52:03;;;;;;;1.40;0.77;;;3.00;61.00;;;;;;6023227;23;20751;-70
2021/01/24 07:54:31;;;;;;;1.40;0.75;;;3.50;59.50;;;;;;6033038;23;20232;-68
2021/01/24 07:56:57;;;;;;;1.40;0.73;;;3.90;59.20;;;;;;6037409;23;20175;-68
2021/01/24 07:59:25;;;;;;;2.42;2.00;;;4.40;58.30;;;;;;6024817;23;20319;-70
2021/01/24 08:01:53;;;;;;;1.40;0.80;;;4.70;55.20;;;;;;6031372;23;20194;-72
2021/01/24 08:04:22;;;;;;;1.40;0.75;;;5.00;54.20;;;;;;6037818;23;20170;-69
2021/01/24 08:06:50;;;;;;;1.40;0.68;;;5.20;53.70;;;;;;6038884;23;20197;-68
2021/01/24 08:09:17;;;;;;;1.45;0.60;;;5.60;53.00;;;;;;6039763;23;20174;-69
2021/01/24 08:11:44;;;;;;;2.63;0.80;;;5.80;53.00;;;;;;6020624;23;20491;-68
2021/01/24 08:14:11;;;;;;;1.83;1.05;;;6.20;51.80;;;;;;6030364;23;20653;-73
2021/01/24 08:16:41;;;;;;;1.60;0.77;;;6.50;51.50;;;;;;6033507;23;20167;-70
2021/01/24 08:19:10;;;;;;;1.30;0.65;;;6.80;49.90;;;;;;6039084;23;20178;-68
2021/01/24 08:21:38;;;;;;;1.75;0.80;;;7.10;49.10;;;;;;6039981;23;20497;-69
2021/01/24 08:24:06;;;;;;;1.60;0.70;;;7.40;48.40;;;;;;6040952;23;20488;-69
2021/01/24 08:26:34;;;;;;;1.65;0.77;;;7.70;47.00;;;;;;6039031;23;20171;-68
2021/01/24 08:29:02;;;;;;;1.83;0.80;;;8.10;46.60;;;;;;6040445;23;20201;-69
2021/01/24 08:31:29;;;;;;;1.52;0.75;;;8.30;45.20;;;;;;6040464;23;20177;-68
2021/01/24 08:33:56;;;;;;;2.63;1.40;;;8.60;44.70;;;;;;6040308;23;20177;-69
2021/01/24 08:36:26;;;;;;;2.40;1.70;;;8.80;43.40;;;;;;6040152;23;20258;-69
2021/01/24 08:38:56;;;;;;;1.60;0.75;;;8.80;43.20;;;;;;6040323;23;20614;-68
2021/01/24 08:41:29;;;;;;;1.65;1.05;;;8.90;41.70;;;;;;6040301;23;20155;-69
2021/01/24 08:44:04;;;;;;;2.10;0.90;;;9.00;42.20;;;;;;6040523;23;20550;-69
2021/01/24 08:46:35;;;;;;;1.80;1.00;;;9.20;42.50;;;;;;6040269;23;20158;-68
2021/01/24 08:49:07;;;;;;;1.40;0.80;;;9.40;42.30;;;;;;6040487;23;20237;-69
2021/01/24 08:51:41;;;;;;;2.33;1.08;;;9.60;40.70;;;;;;6040079;23;20594;-68
2021/01/24 08:54:22;;;;;;;1.60;0.90;;;9.60;40.10;;;;;;6040173;23;20169;-68
2021/01/24 08:56:49;;;;;;;1.77;1.13;;;9.90;39.40;;;;;;6039967;23;20598;-68
2021/01/24 08:59:22;;;;;;;2.70;1.08;;;10.10;38.80;;;;;;6040733;23;20195;-68
2021/01/24 09:01:50;;;;;;;2.10;1.08;;;10.40;38.30;;;;;;6039440;23;20658;-68
2021/01/24 09:04:24;;;;;;;2.70;0.80;;;10.60;37.80;;;;;;6040350;23;20174;-68
2021/01/24 09:07:11;;;;;;;1.60;1.00;;;10.90;37.10;;;;;;6040275;23;20185;-68
2021/01/24 09:09:41;;;;;;;1.63;0.98;;;11.00;35.20;;;;;;6040491;23;20246;-68
2021/01/24 09:12:10;;;;;;;3.15;1.85;;;11.00;34.40;;;;;;6040249;23;20161;-68
2021/01/24 09:14:38;;;;;;;3.80;2.25;;;10.90;33.20;;;;;;6040430;23;20181;-73
2021/01/24 09:17:07;;;;;;;2.97;2.13;;;10.90;33.60;;;;;;6039780;23;20170;-67
2021/01/24 09:19:35;;;;;;;2.78;1.73;;;11.00;33.80;;;;;;6040202;23;20173;-67
2021/01/24 09:22:02;;;;;;;3.63;2.60;;;11.00;31.80;;;;;;6039608;23;20170;-68
2021/01/24 09:24:28;;;;;;;6.47;4.10;;;11.00;32.20;;;;;;6040090;23;20214;-68
2021/01/24 09:26:55;;;;;;;3.35;1.02;;;10.90;32.50;;;;;;6039609;23;20198;-67
2021/01/24 09:29:22;;;;;;;1.90;1.10;;;11.00;32.20;;;;;;6039222;23;20190;-68
2021/01/24 09:31:50;;;;;;;2.50;1.40;;;11.10;31.20;;;;;;6040108;23;20179;-68
2021/01/24 09:34:16;;;;;;;2.50;1.40;;;11.30;30.50;;;;;;6039398;23;20175;-68
2021/01/24 09:36:43;;;;;;;2.30;1.30;;;11.60;30.60;;;;;;6040245;23;20222;-68
2021/01/24 09:39:09;;;;;;;1.73;1.10;;;11.80;29.90;;;;;;6039341;23;20619;-68
2021/01/24 09:41:36;;;;;;;2.13;1.08;;;12.20;29.50;;;;;;6039971;23;20174;-68
2021/01/24 09:44:03;;;;;;;2.33;1.10;;;12.30;28.80;;;;;;6039563;23;20171;-69
2021/01/24 09:46:31;;;;;;;1.90;1.27;;;12.40;28.70;;;;;;6039937;23;20170;-68
2021/01/24 09:48:58;;;;;;;1.50;0.80;;;12.50;28.30;;;;;;6039689;23;20174;-69
2021/01/24 09:51:25;;;;;;;3.25;1.20;;;12.80;28.10;;;;;;6039651;23;20178;-68
2021/01/24 09:53:52;;;;;;;2.13;1.25;;;13.00;28.00;;;;;;6039539;23;20171;-68
2021/01/24 09:56:19;;;;;;;2.22;1.17;;;13.50;27.90;;;;;;6039520;23;20167;-68
2021/01/24 09:58:46;;;;;;;2.25;1.33;;;13.90;26.50;;;;;;6040142;23;20181;-68
2021/01/24 10:01:13;;;;;;;3.92;2.22;;;14.30;27.00;;;;;;6039349;23;20194;-68
2021/01/24 10:03:40;;;;;;;5.78;3.40;;;14.50;26.00;;;;;;6039869;23;20171;-68
2021/01/24 10:06:08;;;;;;;7.18;1.92;;;14.80;25.90;;;;;;6025628;23;20174;-70
2021/01/24 10:08:34;;;;;;;4.97;1.70;;;15.40;25.70;;;;;;6034993;23;20205;-69
2021/01/24 10:11:01;;;;;;;3.17;1.50;;;15.60;24.50;;;;;;6038386;23;20209;-69
2021/01/24 10:13:28;;;;;;;2.60;1.50;;;15.80;23.90;;;;;;6038330;23;20212;-68
2021/01/24 10:15:55;;;;;;;4.63;1.52;;;15.80;23.20;;;;;;6038142;23;20572;-68
2021/01/24 10:18:22;;;;;;;2.78;1.60;;;15.70;23.00;;;;;;6037759;23;20171;-69
2021/01/24 10:20:49;;;;;;;2.78;1.33;;;15.70;23.80;;;;;;6036082;23;20171;-68
2021/01/24 10:23:20;;;;;;;2.65;1.40;;;15.80;23.30;;;;;;6037990;23;20171;-68
2021/01/24 10:25:46;;;;;;;2.38;1.77;;;15.60;22.80;;;;;;6038825;23;20215;-68
2021/01/24 10:28:13;;;;;;;1.80;1.20;;;15.60;22.80;;;;;;6039622;23;20555;-68
2021/01/24 10:30:39;;;;;;;2.47;1.40;;;15.70;23.10;;;;;;6039160;23;20218;-68
2021/01/24 10:33:06;;;;;;;4.70;1.50;;;15.50;22.90;;;;;;6039118;23;20537;-68
2021/01/24 10:35:33;;;;;;;2.22;1.55;;;15.70;22.80;;;;;;6039422;23;20170;-68
2021/01/24 10:37:59;;;;;;;3.45;1.33;;;15.80;22.60;;;;;;6039427;23;20174;-68
2021/01/24 10:40:26;;;;;;;2.85;1.35;;;16.00;21.90;;;;;;6038957;23;20171;-68
2021/01/24 10:42:53;;;;;;;4.18;1.40;;;16.10;22.00;;;;;;6039696;23;20177;-69
2021/01/24 10:45:20;;;;;;;2.60;1.35;;;16.40;22.30;;;;;;6039193;23;20174;-70
2021/01/24 10:47:46;;;;;;;2.15;1.08;;;16.70;21.30;;;;;;6039166;23;20190;-68
2021/01/24 10:50:13;;;;;;;3.13;1.20;;;16.60;21.20;;;;;;6038948;23;20170;-69
2021/01/24 10:52:40;;;;;;;3.00;1.20;;;16.30;20.80;;;;;;6038920;23;20622;-69
2021/01/24 10:55:07;;;;;;;5.45;3.35;;;15.70;21.10;;;;;;6040724;23;20659;-69
2021/01/24 10:57:35;;;;;;;2.45;1.30;;;15.60;22.20;;;;;;6041662;23;20166;-69
2021/01/24 11:00:01;;;;;;;6.10;2.03;;;15.90;22.00;;;;;;6041239;23;20166;-69
2021/01/24 11:02:28;;;;;;;2.40;1.35;;;16.10;21.70;;;;;;6041390;23;20716;-68
2021/01/24 11:04:54;;;;;;;3.00;1.58;;;15.40;20.90;;;;;;6041079;23;20493;-68
2021/01/24 11:07:21;;;;;;;4.13;1.55;;;15.10;21.90;;;;;;6040577;23;20198;-68
2021/01/24 11:09:47;;;;;;;1.90;1.30;;;15.30;21.90;;;;;;6040628;23;20209;-69
2021/01/24 11:12:13;;;;;;;3.38;1.45;;;15.10;21.50;;;;;;6036969;23;20174;-69
2021/01/24 11:14:41;;;;;;;2.75;1.45;;;15.10;21.90;;;;;;6040107;23;20253;-68
2021/01/24 11:17:07;;;;;;;2.17;1.25;;;15.10;21.30;;;;;;6040098;23;20478;-69
2021/01/24 11:19:34;;;;;;;2.15;1.20;;;14.90;21.50;;;;;;6040219;23;20170;-68
2021/01/24 11:22:00;;;;;;;2.97;1.40;;;14.50;21.30;;;;;;6035236;23;20277;-68
2021/01/24 11:24:27;;;;;;;3.25;1.25;;;14.30;21.70;;;;;;6037315;23;20178;-69
2021/01/24 11:26:53;;;;;;;2.80;1.60;;;14.40;21.80;;;;;;6038320;23;20167;-69
2021/01/24 11:29:20;;;;;;;2.00;1.05;;;14.40;21.30;;;;;;6038519;23;20222;-68
2021/01/24 11:31:47;;;;;;;1.88;1.10;;;14.70;21.80;;;;;;6039499;23;20170;-70
2021/01/24 11:34:14;;;;;;;3.50;1.35;;;14.70;21.40;;;;;;6038393;23;20202;-68
2021/01/24 11:36:40;;;;;;;2.00;1.10;;;14.70;21.10;;;;;;6039172;23;20171;-68
2021/01/24 11:39:07;;;;;;;1.65;0.82;;;14.60;20.90;;;;;;6038510;23;20174;-68
2021/01/24 11:41:33;;;;;;;2.80;1.30;;;14.70;21.00;;;;;;6039084;23;20174;-68
2021/01/24 11:44:00;;;;;;;2.88;1.58;;;14.60;20.30;;;;;;6039272;23;20482;-68
2021/01/24 11:46:27;;;;;;;2.35;1.42;;;14.30;20.30;;;;;;6039054;23;20203;-68
2021/01/24 11:48:54;;;;;;;2.67;1.13;;;13.80;20.80;;;;;;6038410;23;20246;-69
2021/01/24 11:51:21;;;;;;;1.98;1.20;;;13.40;20.90;;;;;;6036311;23;20472;-68
2021/01/24 11:53:48;;;;;;;2.70;1.50;;;13.00;21.00;;;;;;6038268;23;20481;-69
2021/01/24 11:56:16;;;;;;;1.80;1.20;;;12.70;21.40;;;;;;6039166;23;20492;-68
2021/01/24 11:58:43;;;;;;;2.05;1.00;;;12.60;21.60;;;;;;6037050;23;20257;-68
2021/01/24 12:01:09;;;;;;;4.38;1.65;;;12.60;22.00;;;;;;6034926;23;20198;-70
2021/01/24 12:03:35;;;;;;;2.40;1.48;;;12.90;21.60;;;;;;6039218;23;20198;-68
2021/01/24 12:06:03;;;;;;;2.88;1.42;;;13.00;21.70;;;;;;6039485;23;20619;-68
2021/01/24 12:08:29;;;;;;;6.72;2.15;;;13.20;21.50;;;;;;6037088;23;20198;-69
2021/01/24 12:10:56;;;;;;;2.47;1.33;;;13.30;21.50;;;;;;6032682;23;20171;-68
2021/01/24 12:13:22;;;;;;;2.15;1.05;;;13.70;21.50;;;;;;6036211;23;20576;-68
2021/01/24 12:15:48;;;;;;;1.98;1.17;;;14.10;21.30;;;;;;6038006;23;20642;-68
2021/01/24 12:18:16;;;;;;;2.00;1.17;;;15.10;21.20;;;;;;6038959;23;20170;-70
2021/01/24 12:20:42;;;;;;;1.73;1.15;;;16.10;20.20;;;;;;6039405;23;20614;-68
2021/01/24 12:23:10;;;;;;;2.75;1.50;;;17.50;19.90;;;;;;6039270;23;20181;-70
2021/01/24 12:25:36;;;;;;;3.13;1.80;;;18.20;18.60;;;;;;6038911;23;20254;-72
2021/01/24 12:28:03;;;;;;;1.97;1.30;;;19.30;18.70;;;;;;6039772;23;20454;-69
2021/01/24 12:30:30;;;;;;;2.20;1.40;;;20.20;18.20;;;;;;6039411;23;20511;-68
2021/01/24 12:32:56;;;;;;;5.00;1.40;;;21.10;17.40;;;;;;6039202;23;20454;-69
2021/01/24 12:35:23;;;;;;;7.97;1.40;;;21.90;17.30;;;;;;6039538;23;20411;-69
2021/01/24 12:37:49;;;;;;;3.10;1.53;;;22.20;15.90;;;;;;6039379;23;20395;-70
2021/01/24 12:40:17;;;;;;;2.10;1.17;;;22.30;15.90;;;;;;6039269;23;20403;-68
2021/01/24 12:42:43;;;;;;;2.00;0.97;;;22.30;16.10;;;;;;6039846;23;20478;-69
2021/01/24 12:45:10;;;;;;;2.20;1.30;;;22.60;15.40;;;;;;6040063;23;20482;-68
2021/01/24 12:47:38;;;;;;;2.70;1.30;;;22.50;15.60;;;;;;6039714;23;20590;-70
2021/01/24 12:50:06;;;;;;;3.63;1.20;;;21.70;14.90;;;;;;6039221;23;20459;-68
2021/01/24 12:52:35;;;;;;;4.13;1.00;;;21.20;15.70;;;;;;6038808;23;20403;-68
2021/01/24 12:55:02;;;;;;;1.70;0.97;;;20.90;16.00;;;;;;6038966;23;20436;-68
2021/01/24 12:57:29;;;;;;;2.60;1.20;;;20.10;15.40;;;;;;6038635;23;20403;-68